createdAt,value
2023-03-30T06:24:39.536Z,72.37
2023-03-30T06:25:39.915Z,72.47
2023-03-30T06:26:38.431Z,72.41
2023-03-30T06:27:38.391Z,72.46
2023-03-30T06:28:38.880Z,72.49
2023-03-30T06:29:38.882Z,72.48
2023-03-30T06:30:38.868Z,72.51
2023-03-30T06:31:39.021Z,72.53
2023-03-30T06:32:38.427Z,72.55
2023-03-30T06:33:41.526Z,72.65
2023-03-30T06:34:37.569Z,72.62
2023-03-30T06:35:38.292Z,72.67
2023-03-30T06:37:00.342Z,72.68
2023-03-30T06:37:38.278Z,72.65
2023-03-30T06:38:59.905Z,72.65
2023-03-30T06:39:39.333Z,72.62
2023-03-30T06:40:38.473Z,72.46
2023-03-30T06:41:38.544Z,72.43
2023-03-30T06:42:38.147Z,72.49
2023-03-30T06:43:38.616Z,72.54
2023-03-30T06:44:38.928Z,72.68
2023-03-30T06:45:39.373Z,72.70
2023-03-30T06:46:38.416Z,72.65
2023-03-30T06:47:38.692Z,72.74
2023-03-30T06:48:39.298Z,72.75
2023-03-30T06:49:37.507Z,72.62
2023-03-30T06:50:38.161Z,72.47
2023-03-30T06:51:38.504Z,72.37
2023-03-30T06:52:38.042Z,72.42
2023-03-30T06:53:37.713Z,72.53
2023-03-30T06:54:38.403Z,72.56
2023-03-30T06:55:38.246Z,72.57
2023-03-30T06:56:37.926Z,72.62
2023-03-30T06:57:39.748Z,72.59
2023-03-30T06:58:39.338Z,72.50
2023-03-30T06:59:38.064Z,72.54
2023-03-30T07:00:39.385Z,72.44
2023-03-30T07:01:38.571Z,72.33
2023-03-30T07:02:38.559Z,72.37
2023-03-30T07:03:38.422Z,72.43
2023-03-30T07:04:43.518Z,72.49
2023-03-30T07:05:38.884Z,72.47
2023-03-30T07:06:37.884Z,72.48
2023-03-30T07:07:38.367Z,72.60
2023-03-30T07:08:38.555Z,72.48
2023-03-30T07:09:38.123Z,72.30
2023-03-30T07:10:37.899Z,72.05
2023-03-30T07:11:38.440Z,71.97
2023-03-30T07:12:39.029Z,71.95
2023-03-30T07:13:37.684Z,71.95
2023-03-30T07:14:38.276Z,71.94
2023-03-30T07:15:38.834Z,71.95
2023-03-30T07:16:38.545Z,71.99
2023-03-30T07:17:41.403Z,72.02
2023-03-30T07:18:37.735Z,72.09
2023-03-30T07:19:38.990Z,71.97
2023-03-30T07:20:38.252Z,71.80
2023-03-30T07:21:39.037Z,71.75
2023-03-30T07:22:38.562Z,71.67
2023-03-30T07:23:37.979Z,71.46
2023-03-30T07:24:38.451Z,71.34
2023-03-30T07:25:38.749Z,71.33
2023-03-30T07:26:37.772Z,71.49
2023-03-30T07:27:40.350Z,71.56
2023-03-30T07:28:38.908Z,71.58
2023-03-30T07:29:38.016Z,71.42
2023-03-30T07:30:38.972Z,71.40
2023-03-30T07:31:38.757Z,71.45
2023-03-30T07:32:39.741Z,71.51
2023-03-30T07:33:40.053Z,71.24
2023-03-30T07:34:38.514Z,71.07
2023-03-30T07:35:38.418Z,71.05
2023-03-30T07:36:37.388Z,70.91
2023-03-30T07:37:37.752Z,70.78
2023-03-30T07:38:38.606Z,70.76
2023-03-30T07:39:43.273Z,70.83
2023-03-30T07:40:38.149Z,70.96
2023-03-30T07:41:38.472Z,70.94
2023-03-30T07:42:38.586Z,70.91
2023-03-30T07:43:38.417Z,70.95
2023-03-30T07:44:37.665Z,70.96
2023-03-30T07:45:38.895Z,70.95
2023-03-30T07:46:38.264Z,70.81
2023-03-30T07:47:38.180Z,70.77
2023-03-30T07:48:38.638Z,70.73
2023-03-30T07:49:38.054Z,70.57
2023-03-30T07:50:38.397Z,70.35
2023-03-30T07:51:38.772Z,70.36
2023-03-30T07:52:39.231Z,70.39
2023-03-30T07:53:38.310Z,70.36
2023-03-30T07:54:37.911Z,70.35
2023-03-30T07:55:39.059Z,70.30
2023-03-30T07:56:38.179Z,70.30
2023-03-30T07:57:38.075Z,70.33
2023-03-30T07:58:37.913Z,70.05
2023-03-30T07:59:52.989Z,69.76
2023-03-30T08:00:39.723Z,69.68
2023-03-30T08:01:52.401Z,69.78
2023-03-30T08:02:38.128Z,69.60
2023-03-30T08:03:52.289Z,69.23
2023-03-30T08:04:41.447Z,68.88
2023-03-30T08:05:53.292Z,68.90
2023-03-30T08:06:38.884Z,69.01
2023-03-30T08:07:39.475Z,69.12
2023-03-30T08:08:38.932Z,69.07
2023-03-30T08:09:37.640Z,68.94
2023-03-30T08:10:39.144Z,68.71
2023-03-30T08:11:38.706Z,68.76
2023-03-30T08:12:38.230Z,68.81
2023-03-30T08:13:38.021Z,68.62
2023-03-30T08:14:38.177Z,68.59
2023-03-30T08:15:37.816Z,68.69
2023-03-30T08:16:37.871Z,68.82
2023-03-30T08:17:38.405Z,68.74
2023-03-30T08:18:38.233Z,68.88
2023-03-30T08:19:37.839Z,69.05
2023-03-30T08:20:38.085Z,69.13
2023-03-30T08:21:37.832Z,69.35
2023-03-30T08:22:38.008Z,69.21
2023-03-30T08:23:37.463Z,68.99
2023-03-30T08:24:37.910Z,68.59
2023-03-30T08:25:38.437Z,68.43
2023-03-30T08:26:37.825Z,68.10
2023-03-30T08:27:38.399Z,68.05
2023-03-30T08:28:38.357Z,68.02
2023-03-30T08:30:09.411Z,67.95
2023-03-30T08:30:41.925Z,68.12
2023-03-30T08:31:38.593Z,68.22
2023-03-30T08:32:37.885Z,68.36
2023-03-30T08:33:38.361Z,68.36
2023-03-30T08:34:37.989Z,68.45
2023-03-30T08:35:51.813Z,68.47
2023-03-30T08:36:38.039Z,68.37
2023-03-30T08:37:39.102Z,68.08
2023-03-30T08:38:37.834Z,67.96
2023-03-30T08:39:38.083Z,67.63
2023-03-30T08:40:38.207Z,67.26
2023-03-30T08:41:37.808Z,67.00
2023-03-30T08:42:38.055Z,66.78
2023-03-30T08:43:51.612Z,66.74
2023-03-30T08:44:37.890Z,66.84
2023-03-30T08:45:39.720Z,66.77
2023-03-30T08:46:38.356Z,66.82
2023-03-30T08:47:38.028Z,66.75
2023-03-30T08:48:38.120Z,66.77
2023-03-30T08:49:39.039Z,66.79
2023-03-30T08:50:37.702Z,66.61
2023-03-30T08:51:38.382Z,66.40
2023-03-30T08:52:38.406Z,66.26
2023-03-30T08:53:38.597Z,66.04
2023-03-30T08:54:37.499Z,65.72
2023-03-30T08:55:38.558Z,65.55
2023-03-30T08:56:37.070Z,65.69
2023-03-30T08:57:38.056Z,65.83
2023-03-30T08:58:37.978Z,66.07
2023-03-30T08:59:38.214Z,66.21
2023-03-30T09:00:38.985Z,66.23
2023-03-30T09:01:38.246Z,65.54
2023-03-30T09:02:38.335Z,65.02
2023-03-30T09:03:38.058Z,65.01
2023-03-30T09:04:38.267Z,65.04
2023-03-30T09:05:38.309Z,65.05
2023-03-30T09:06:38.506Z,65.00
2023-03-30T09:08:38.149Z,65.32
2023-03-30T09:09:37.459Z,65.51
2023-03-30T09:10:37.900Z,65.41
2023-03-30T09:11:38.345Z,65.37
2023-03-30T09:12:38.558Z,65.21
2023-03-30T09:13:38.206Z,65.18
2023-03-30T09:14:38.150Z,65.22
2023-03-30T09:15:37.845Z,65.27
2023-03-30T09:16:38.126Z,65.16
2023-03-30T09:18:09.855Z,65.11
2023-03-30T09:18:41.723Z,64.96
2023-03-30T09:19:38.137Z,64.30
2023-03-30T09:20:37.650Z,64.04
2023-03-30T09:21:37.861Z,64.10
2023-03-30T09:22:38.660Z,64.31
2023-03-30T09:23:37.837Z,64.56
2023-03-30T09:24:38.126Z,64.65
2023-03-30T09:25:38.292Z,64.83
2023-03-30T09:26:37.924Z,64.98
2023-03-30T09:27:38.408Z,64.92
2023-03-30T09:28:37.993Z,64.97
2023-03-30T09:29:37.712Z,65.02
2023-03-30T09:30:38.545Z,65.23
2023-03-30T09:31:38.327Z,65.33
2023-03-30T09:32:37.778Z,65.36
2023-03-30T09:33:38.383Z,65.46
2023-03-30T09:34:37.677Z,65.23
2023-03-30T09:35:38.029Z,65.21
2023-03-30T09:36:38.159Z,65.10
2023-03-30T09:37:38.241Z,64.89
2023-03-30T09:38:38.183Z,64.88
2023-03-30T09:39:38.240Z,64.85
2023-03-30T09:40:37.923Z,64.90
2023-03-30T09:41:38.353Z,65.00
2023-03-30T09:42:38.106Z,65.13
2023-03-30T09:43:37.747Z,65.21
2023-03-30T09:44:38.655Z,65.14
2023-03-30T09:45:38.153Z,64.95
2023-03-30T09:46:37.828Z,64.97
2023-03-30T09:47:38.549Z,64.66
2023-03-30T09:48:38.204Z,64.59
2023-03-30T09:49:38.141Z,64.5
2023-03-30T09:50:37.805Z,64.12
2023-03-30T09:51:38.132Z,63.93
2023-03-30T09:52:37.937Z,64.55
2023-03-30T09:53:38.294Z,65.90
2023-03-30T09:54:38.417Z,67.5
2023-03-30T09:55:38.456Z,69.11
2023-03-30T09:56:40.294Z,70.52
2023-03-30T09:57:37.599Z,69.91
2023-03-30T09:58:38.759Z,70.10
2023-03-30T09:59:38.056Z,70.08
2023-03-30T10:00:38.813Z,69.91
2023-03-30T10:01:38.791Z,70.23
2023-03-30T10:02:39.043Z,70.83
2023-03-30T10:03:39.338Z,71.26
2023-03-30T10:04:38.505Z,71.69
2023-03-30T10:05:38.265Z,72.38
2023-03-30T10:06:38.218Z,72.16
2023-03-30T10:07:37.919Z,72.52
2023-03-30T10:08:40.009Z,73.06
2023-03-30T10:09:38.103Z,73.61
2023-03-30T10:10:42.694Z,73.94
2023-03-30T10:11:37.773Z,74.22
2023-03-30T10:12:43.034Z,74.03
2023-03-30T10:13:37.837Z,74.05
2023-03-30T10:14:43.767Z,74.02
2023-03-30T10:15:39.363Z,74.31
2023-03-30T10:16:37.905Z,74.86
2023-03-30T10:17:38.049Z,75.29
2023-03-30T10:18:38.113Z,75.56
2023-03-30T10:19:38.907Z,75.70
2023-03-30T10:20:38.059Z,75.80
2023-03-30T10:21:37.743Z,75.77
2023-03-30T10:22:45.927Z,76.12
2023-03-30T10:23:37.996Z,76.32
2023-03-30T10:24:37.551Z,76.27
2023-03-30T10:25:37.542Z,76.00
2023-03-30T10:26:52.318Z,76.18
2023-03-30T10:27:37.403Z,76.16
2023-03-30T10:28:38.250Z,76.15
2023-03-30T10:29:37.821Z,76.33
2023-03-30T10:30:38.834Z,76.69
2023-03-30T10:31:42.226Z,76.75
2023-03-30T10:32:37.630Z,76.93
2023-03-30T10:33:37.642Z,76.98
2023-03-30T10:34:38.531Z,76.79
2023-03-30T10:35:38.177Z,76.98
2023-03-30T10:36:37.871Z,77.01
2023-03-30T10:37:38.440Z,77.02
2023-03-30T10:38:37.406Z,77.13
2023-03-30T10:39:38.348Z,77.41
2023-03-30T10:40:38.376Z,77.49
2023-03-30T10:41:37.776Z,77.55
2023-03-30T10:42:38.738Z,77.44
2023-03-30T10:43:38.660Z,77.58
2023-03-30T10:44:38.973Z,77.64
2023-03-30T10:45:38.177Z,77.68
2023-03-30T10:46:38.381Z,77.58
2023-03-30T10:47:37.819Z,77.36
2023-03-30T10:48:43.535Z,77.00
2023-03-30T10:49:37.698Z,76.73
2023-03-30T10:50:38.217Z,76.54
2023-03-30T10:51:38.120Z,76.63
2023-03-30T10:52:45.911Z,76.62
2023-03-30T10:53:37.784Z,76.50
2023-03-30T10:54:37.959Z,76.42
2023-03-30T10:55:38.549Z,76.76
2023-03-30T10:56:37.871Z,76.98
2023-03-30T10:57:39.230Z,77.04
2023-03-30T10:58:38.153Z,77.25
2023-03-30T10:59:38.091Z,76.88
2023-03-30T11:00:39.105Z,76.72
2023-03-30T11:01:38.403Z,76.74
2023-03-30T11:02:38.988Z,76.26
2023-03-30T11:03:37.741Z,76.17
2023-03-30T11:04:39.209Z,76.31
2023-03-30T11:05:37.721Z,76.62
2023-03-30T11:06:37.927Z,76.41
2023-03-30T11:07:38.047Z,76.13
2023-03-30T11:08:37.820Z,76.27
2023-03-30T11:09:38.655Z,76.40
2023-03-30T11:10:37.642Z,75.99
2023-03-30T11:11:38.321Z,75.81
2023-03-30T11:12:38.685Z,75.91
2023-03-30T11:13:38.011Z,75.43
2023-03-30T11:14:56.238Z,75.52
2023-03-30T11:15:38.322Z,75.04
2023-03-30T11:16:38.205Z,75.06
2023-03-30T11:17:37.052Z,74.94
2023-03-30T11:18:38.035Z,75.25
2023-03-30T11:19:38.246Z,75.54
2023-03-30T11:20:37.860Z,76.11
2023-03-30T11:21:38.562Z,76.64
2023-03-30T11:22:37.952Z,76.90
2023-03-30T11:23:38.185Z,77.16
2023-03-30T11:24:38.090Z,77.48
2023-03-30T11:25:37.548Z,77.58
2023-03-30T11:26:37.884Z,77.62
2023-03-30T11:27:37.990Z,77.57
2023-03-30T11:28:38.028Z,77.68
2023-03-30T11:29:38.052Z,77.37
2023-03-30T11:30:37.934Z,77.25
2023-03-30T11:31:38.171Z,77.32
2023-03-30T11:32:38.242Z,77.20
2023-03-30T11:33:37.686Z,77.19
2023-03-30T11:34:38.448Z,77.32
2023-03-30T11:35:37.625Z,77.46
2023-03-30T11:36:38.068Z,77.49
2023-03-30T11:37:37.379Z,77.31
2023-03-30T11:38:37.418Z,77.31
2023-03-30T11:39:47.287Z,77.03
2023-03-30T11:40:41.407Z,77.03
2023-03-30T11:41:37.902Z,77.12
2023-03-30T11:42:38.392Z,76.91
2023-03-30T11:43:37.877Z,76.77
2023-03-30T11:44:37.732Z,76.82
2023-03-30T11:45:38.820Z,76.46
2023-03-30T11:46:38.514Z,76.40
2023-03-30T11:47:38.102Z,76.23
2023-03-30T11:48:38.280Z,75.95
2023-03-30T11:49:39.136Z,75.79
2023-03-30T11:50:38.673Z,75.92
2023-03-30T11:51:38.747Z,76.26
2023-03-30T11:52:38.381Z,76.06
2023-03-30T11:53:38.240Z,75.61
2023-03-30T11:54:37.733Z,75.83
2023-03-30T11:55:38.259Z,75.81
2023-03-30T11:56:40.731Z,75.82
2023-03-30T11:57:37.927Z,75.73
2023-03-30T11:58:38.208Z,75.90
2023-03-30T11:59:38.081Z,75.82
2023-03-30T12:00:38.794Z,75.84
2023-03-30T12:01:37.648Z,75.47
2023-03-30T12:02:38.316Z,75.30
2023-03-30T12:03:38.697Z,75.21
2023-03-30T12:04:38.624Z,75.28
2023-03-30T12:05:37.984Z,75.31
2023-03-30T12:06:37.472Z,75.29
2023-03-30T12:07:37.481Z,75.19
2023-03-30T12:08:37.701Z,75.35
2023-03-30T12:09:38.355Z,75.54
2023-03-30T12:10:38.271Z,75.46
2023-03-30T12:11:38.006Z,75.44
2023-03-30T12:12:37.861Z,75.40
2023-03-30T12:13:48.624Z,75.40
2023-03-30T12:14:38.615Z,75.46
2023-03-30T12:15:38.810Z,75.38
2023-03-30T12:16:40.867Z,75.40
2023-03-30T12:17:38.943Z,75.14
2023-03-30T12:18:38.198Z,75.25
2023-03-30T12:19:45.641Z,75.08
2023-03-30T12:20:37.952Z,75.08
2023-03-30T12:21:38.490Z,74.89
2023-03-30T12:22:38.152Z,74.80
2023-03-30T12:23:37.321Z,74.98
2023-03-30T12:24:37.852Z,75.16
2023-03-30T12:25:38.267Z,74.81
2023-03-30T12:26:38.020Z,74.93
2023-03-30T12:27:41.980Z,74.94
2023-03-30T12:28:57.984Z,74.67
2023-03-30T12:30:01.067Z,74.49
2023-03-30T12:30:41.189Z,74.32
2023-03-30T12:31:38.353Z,74.11
2023-03-30T12:32:40.449Z,74.30
2023-03-30T12:33:37.381Z,74.63
2023-03-30T12:34:37.506Z,74.74
2023-03-30T12:35:38.103Z,74.49
2023-03-30T12:36:37.762Z,74.20
2023-03-30T12:37:38.676Z,73.98
2023-03-30T12:38:38.115Z,74.05
2023-03-30T12:39:38.488Z,74.22
2023-03-30T12:40:38.054Z,74.31
2023-03-30T12:41:37.296Z,74.15
2023-03-30T12:42:38.301Z,73.95
2023-03-30T12:43:37.933Z,73.71
2023-03-30T12:44:38.734Z,73.76
2023-03-30T12:45:38.666Z,73.29
2023-03-30T12:46:38.060Z,72.81
2023-03-30T12:47:52.146Z,72.37
2023-03-30T12:48:38.399Z,72.47
2023-03-30T12:49:38.316Z,72.49
2023-03-30T12:50:38.073Z,72.70
2023-03-30T12:51:38.173Z,72.64
2023-03-30T12:52:37.427Z,72.61
2023-03-30T12:53:37.717Z,72.29
2023-03-30T12:54:38.244Z,71.90
2023-03-30T12:55:38.183Z,71.52
2023-03-30T12:56:38.208Z,71.39
2023-03-30T12:57:38.013Z,71.28
2023-03-30T12:58:37.634Z,71.15
2023-03-30T12:59:38.077Z,70.88
2023-03-30T13:00:38.470Z,70.64
2023-03-30T13:01:52.706Z,70.81
2023-03-30T13:02:38.045Z,70.78
2023-03-30T13:03:37.792Z,70.73
2023-03-30T13:04:39.121Z,70.80
2023-03-30T13:05:42.910Z,70.90
2023-03-30T13:06:38.543Z,70.55
2023-03-30T13:07:38.733Z,70.41
2023-03-30T13:08:38.319Z,70.45
2023-03-30T13:09:38.490Z,70.47
2023-03-30T13:10:38.267Z,69.81
2023-03-30T13:11:37.636Z,69.76
2023-03-30T13:12:38.546Z,69.94
2023-03-30T13:13:37.745Z,69.88
2023-03-30T13:14:38.140Z,69.62
2023-03-30T13:15:43.294Z,69.54
2023-03-30T13:16:37.770Z,69.86
2023-03-30T13:17:38.230Z,69.61
2023-03-30T13:18:37.805Z,68.84
2023-03-30T13:20:00.496Z,68.40
2023-03-30T13:20:45.185Z,68.11
2023-03-30T13:21:38.307Z,67.63
2023-03-30T13:22:37.719Z,67.68
2023-03-30T13:24:10.839Z,67.97
2023-03-30T13:24:42.037Z,68.06
2023-03-30T13:25:37.683Z,68.44
2023-03-30T13:26:49.453Z,68.20
2023-03-30T13:27:52.379Z,68.13
2023-03-30T13:28:38.075Z,67.91
2023-03-30T13:29:52.200Z,68.33
2023-03-30T13:30:38.265Z,68.68
2023-03-30T13:32:09.633Z,68.75
2023-03-30T13:32:42.052Z,68.83
2023-03-30T13:33:38.300Z,68.94
2023-03-30T13:34:37.888Z,68.73
2023-03-30T13:35:52.811Z,68.85
2023-03-30T13:36:38.163Z,69.23
2023-03-30T13:37:37.517Z,69.23
2023-03-30T13:38:37.741Z,69.08
2023-03-30T13:39:39.914Z,68.91
2023-03-30T13:41:03.816Z,69.03
2023-03-30T13:41:56.873Z,69.23
2023-03-30T13:42:38.553Z,69.52
2023-03-30T13:43:38.695Z,69.70
2023-03-30T13:44:38.496Z,69.73
2023-03-30T13:46:09.234Z,69.72
2023-03-30T13:46:38.583Z,69.64
2023-03-30T13:47:38.160Z,69.76
2023-03-30T13:48:38.315Z,70.24
2023-03-30T13:49:38.571Z,69.93
2023-03-30T13:50:41.132Z,69.56
2023-03-30T13:51:37.639Z,69.38
2023-03-30T13:52:38.747Z,69.66
2023-03-30T13:53:37.871Z,69.66
2023-03-30T13:54:37.869Z,69.66
2023-03-30T13:55:38.350Z,69.65
2023-03-30T13:56:37.924Z,68.76
2023-03-30T13:57:38.358Z,67.96
2023-03-30T13:58:37.521Z,67.80
2023-03-30T14:00:38.588Z,67.65
2023-03-30T14:01:39.561Z,67.86
2023-03-30T14:02:39.119Z,67.73
2023-03-30T14:03:37.622Z,67.66
2023-03-30T14:04:38.208Z,67.86
2023-03-30T14:05:38.165Z,67.99
2023-03-30T14:06:38.046Z,68.08
2023-03-30T14:07:38.425Z,67.95
2023-03-30T14:08:38.324Z,67.82
2023-03-30T14:09:38.221Z,68.31
2023-03-30T14:10:37.938Z,68.16
2023-03-30T14:11:38.101Z,68.13
2023-03-30T14:12:39.362Z,68.13
2023-03-30T14:13:38.005Z,68.16
2023-03-30T14:14:38.139Z,68.11
2023-03-30T14:16:38.493Z,67.82
2023-03-30T14:17:38.954Z,67.04
2023-03-30T14:18:38.927Z,65.47
2023-03-30T14:19:37.977Z,64.51
2023-03-30T14:20:37.691Z,63.72
2023-03-30T14:21:37.860Z,63.49
2023-03-30T14:22:39.151Z,63.77
2023-03-30T14:23:38.057Z,64.07
2023-03-30T14:24:38.001Z,63.70
2023-03-30T14:25:37.629Z,62.97
2023-03-30T14:26:37.925Z,62.97
2023-03-30T14:27:37.950Z,62.93
2023-03-30T14:28:38.520Z,62.91
2023-03-30T14:29:46.356Z,62.20
2023-03-30T14:30:37.960Z,61.61
2023-03-30T14:31:38.212Z,62
2023-03-30T14:32:38.183Z,61.65
2023-03-30T14:33:38.036Z,61.50
2023-03-30T14:34:38.128Z,61.58
2023-03-30T14:35:38.026Z,61.63
2023-03-30T14:36:38.218Z,61.73
2023-03-30T14:37:38.310Z,62.15
2023-03-30T14:38:37.883Z,62.33
2023-03-30T14:39:38.640Z,62.61
2023-03-30T14:40:37.909Z,62.5
2023-03-30T14:41:38.001Z,62.67
2023-03-30T14:42:37.945Z,62.48
2023-03-30T14:43:39.446Z,62.58
2023-03-30T14:44:38.479Z,62.88
2023-03-30T14:45:38.379Z,62.99
2023-03-30T14:46:37.899Z,62.88
2023-03-30T14:47:39.437Z,62.77
2023-03-30T14:48:38.904Z,62.88
2023-03-30T14:49:38.314Z,63.07
2023-03-30T14:50:38.307Z,63.09
2023-03-30T14:51:38.797Z,62.95
2023-03-30T14:52:39.915Z,62.84
2023-03-30T14:53:38.889Z,62.90
2023-03-30T14:54:51.375Z,63.02
2023-03-30T14:55:38.675Z,63.05
2023-03-30T14:56:43.147Z,63.45
2023-03-30T14:57:38.446Z,63.63
2023-03-30T14:58:37.905Z,63.66
2023-03-30T14:59:39.690Z,63.73
2023-03-30T15:00:44.662Z,63.71
2023-03-30T15:01:38.505Z,64.29
2023-03-30T15:02:38.475Z,64.53
2023-03-30T15:03:49.168Z,64.69
2023-03-30T15:04:42.986Z,64.65
2023-03-30T15:05:37.831Z,64.75
2023-03-30T15:06:39.209Z,64.99
2023-03-30T15:07:38.400Z,64.94
2023-03-30T15:08:46.018Z,65.19
2023-03-30T15:09:37.416Z,65.34
2023-03-30T15:10:38.122Z,65.45
2023-03-30T15:11:38.000Z,65.45
2023-03-30T15:12:37.623Z,65.44
2023-03-30T15:13:38.082Z,65.70
2023-03-30T15:14:38.341Z,65.84
2023-03-30T15:15:38.250Z,65.87
2023-03-30T15:16:37.779Z,65.90
2023-03-30T15:17:38.390Z,65.51
2023-03-30T15:18:38.197Z,65.27
2023-03-30T15:19:37.746Z,65.29
2023-03-30T15:20:38.161Z,65.23
2023-03-30T15:21:37.429Z,65.77
2023-03-30T15:22:52.553Z,65.33
2023-03-30T15:23:38.374Z,65.15
2023-03-30T15:24:37.761Z,64.83
2023-03-30T15:25:38.228Z,64.74
2023-03-30T15:26:37.761Z,64.68
2023-03-30T15:27:38.414Z,64.80
2023-03-30T15:28:42.876Z,64.62
2023-03-30T15:29:38.647Z,64.66
2023-03-30T15:30:58.033Z,64.13
2023-03-30T15:31:37.679Z,63.06
2023-03-30T15:32:38.151Z,62.95
2023-03-30T15:33:37.880Z,62.77
2023-03-30T15:34:37.729Z,62.56
2023-03-30T15:35:38.970Z,62.40
2023-03-30T15:36:42.288Z,62.75
2023-03-30T15:37:38.066Z,62.89
2023-03-30T15:38:37.747Z,62.43
2023-03-30T15:39:38.292Z,62.29
2023-03-30T15:40:37.960Z,61.5
2023-03-30T15:41:37.617Z,61.01
2023-03-30T15:42:39.465Z,61.26
2023-03-30T15:43:38.577Z,61.27
2023-03-30T15:44:38.138Z,61.39
2023-03-30T15:45:37.554Z,61.51
2023-03-30T15:46:37.770Z,61.58
2023-03-30T15:47:38.014Z,61.61
2023-03-30T15:48:37.778Z,61.72
2023-03-30T15:49:38.523Z,61.91
2023-03-30T15:50:52.567Z,62.09
2023-03-30T15:51:38.289Z,62.37
2023-03-30T15:52:37.497Z,62.36
2023-03-30T15:53:37.699Z,62.42
2023-03-30T15:54:38.518Z,62.26
2023-03-30T15:55:38.374Z,62.25
2023-03-30T15:56:38.308Z,62.39
2023-03-30T15:57:37.833Z,62.15
2023-03-30T15:58:38.094Z,62.20
2023-03-30T15:59:37.964Z,62.43
2023-03-30T16:00:40.107Z,62.40
2023-03-30T16:01:38.750Z,62.59
2023-03-30T16:02:39.135Z,62.77
2023-03-30T16:03:37.949Z,62.44
2023-03-30T16:04:57.775Z,62.52
2023-03-30T16:05:38.148Z,62.64
2023-03-30T16:07:10.492Z,62.51
2023-03-30T16:07:41.574Z,62.50
2023-03-30T16:08:38.381Z,62.37
2023-03-30T16:09:37.839Z,62.33
2023-03-30T16:10:38.621Z,62.24
2023-03-30T16:11:37.866Z,62.09
2023-03-30T16:12:57.202Z,62.27
2023-03-30T16:13:37.915Z,62.44
2023-03-30T16:14:37.734Z,62.57
2023-03-30T16:15:38.376Z,62.65
2023-03-30T16:17:00.911Z,62.51
2023-03-30T16:17:37.765Z,62.56
2023-03-30T16:18:59.766Z,62.64
2023-03-30T16:19:38.129Z,62.77
2023-03-30T16:20:37.945Z,62.75
2023-03-30T16:21:38.495Z,62.73
2023-03-30T16:22:37.298Z,62.69
2023-03-30T16:23:37.674Z,63.24
2023-03-30T16:24:38.468Z,63.49
2023-03-30T16:25:52.844Z,63.76
2023-03-30T16:26:38.052Z,63.91
2023-03-30T16:27:38.384Z,64.04
2023-03-30T16:28:39.450Z,63.93
2023-03-30T16:29:37.806Z,63.72
2023-03-30T16:30:38.832Z,63.52
2023-03-30T16:31:38.611Z,63.65
2023-03-30T16:32:39.602Z,63.72
2023-03-30T16:33:37.634Z,63.28
2023-03-30T16:34:38.027Z,62.95
2023-03-30T16:35:37.856Z,62.91
2023-03-30T16:36:38.281Z,62.59
2023-03-30T16:37:37.957Z,62.47
2023-03-30T16:38:38.590Z,62.56
2023-03-30T16:39:38.268Z,62.73
2023-03-30T16:40:38.003Z,62.87
2023-03-30T16:41:37.581Z,62.68
2023-03-30T16:42:37.893Z,62.51
2023-03-30T16:43:37.422Z,62.16
2023-03-30T16:44:37.696Z,62.15
2023-03-30T16:45:38.223Z,61.97
2023-03-30T16:46:37.963Z,61.94
2023-03-30T16:47:38.500Z,61.99
2023-03-30T16:48:37.488Z,62
2023-03-30T16:49:37.882Z,62.20
2023-03-30T16:50:38.284Z,62.32
2023-03-30T16:51:38.312Z,62.49
2023-03-30T16:52:37.747Z,62.63
2023-03-30T16:53:38.194Z,62.80
2023-03-30T16:54:46.123Z,62.68
2023-03-30T16:55:37.611Z,62.84
2023-03-30T16:56:37.513Z,62.81
2023-03-30T16:57:38.249Z,63.01
2023-03-30T16:58:38.114Z,63.15
2023-03-30T16:59:37.685Z,63.26
2023-03-30T17:00:39.380Z,63.18
2023-03-30T17:01:37.791Z,63.11
2023-03-30T17:02:38.421Z,63.20
2023-03-30T17:03:38.625Z,63.50
2023-03-30T17:04:38.631Z,63.64
2023-03-30T17:05:38.745Z,63.95
2023-03-30T17:06:38.370Z,64.06
2023-03-30T17:07:38.421Z,64.16
2023-03-30T17:08:39.095Z,64.30
2023-03-30T17:09:38.737Z,64.16
2023-03-30T17:10:38.696Z,64.21
2023-03-30T17:11:38.307Z,64.51
2023-03-30T17:12:38.206Z,64.66
2023-03-30T17:13:38.072Z,64.67
2023-03-30T17:14:37.599Z,64.69
2023-03-30T17:15:39.345Z,64.76
2023-03-30T17:16:37.998Z,65.19
2023-03-30T17:17:38.006Z,65.30
2023-03-30T17:18:37.783Z,65.43
2023-03-30T17:19:39.116Z,65.50
2023-03-30T17:20:38.158Z,65.68
2023-03-30T17:21:42.986Z,65.54
2023-03-30T17:22:37.515Z,65.37
2023-03-30T17:23:43.610Z,65.26
2023-03-30T17:24:38.026Z,65.35
2023-03-30T17:25:42.606Z,65.41
2023-03-30T17:26:37.978Z,65.63
2023-03-30T17:27:42.578Z,65.85
2023-03-30T17:28:38.325Z,66.04
2023-03-30T17:29:37.941Z,66.23
2023-03-30T17:30:38.868Z,66.48
2023-03-30T17:31:43.236Z,66.66
2023-03-30T17:32:38.047Z,66.76
2023-03-30T17:33:37.894Z,66.76
2023-03-30T17:34:38.736Z,66.79
2023-03-30T17:35:38.640Z,66.81
2023-03-30T17:36:37.924Z,66.92
2023-03-30T17:37:38.453Z,67.00
2023-03-30T17:38:37.882Z,67.04
2023-03-30T17:39:38.406Z,66.97
2023-03-30T17:40:38.286Z,66.93
2023-03-30T17:41:37.477Z,67.08
2023-03-30T17:42:37.763Z,67.01
2023-03-30T17:43:37.993Z,66.98
2023-03-30T17:44:37.961Z,67.09
2023-03-30T17:45:38.621Z,67.31
2023-03-30T17:46:38.278Z,67.19
2023-03-30T17:47:37.744Z,67.07
2023-03-30T17:48:38.159Z,67.25
2023-03-30T17:49:37.805Z,67.47
2023-03-30T17:50:37.908Z,67.52
2023-03-30T17:51:38.245Z,67.60
2023-03-30T17:52:38.403Z,67.63
2023-03-30T17:53:42.640Z,67.75
2023-03-30T17:54:38.229Z,67.77
2023-03-30T17:55:42.834Z,67.80
2023-03-30T17:56:38.542Z,68.00
2023-03-30T17:57:43.135Z,68.01
2023-03-30T17:58:38.268Z,68.11
2023-03-30T17:59:57.072Z,68.16
2023-03-30T18:00:39.195Z,68.09
2023-03-30T18:01:56.822Z,68.23
2023-03-30T18:02:38.423Z,68.33
2023-03-30T18:03:37.992Z,68.49
2023-03-30T18:04:37.605Z,68.64
2023-03-30T18:05:45.848Z,68.64
2023-03-30T18:06:37.965Z,68.79
2023-03-30T18:07:38.499Z,68.88
2023-03-30T18:08:38.093Z,69.02
2023-03-30T18:09:38.354Z,69.05
2023-03-30T18:10:38.388Z,68.98
2023-03-30T18:11:37.997Z,69.11
2023-03-30T18:12:38.228Z,69.24
2023-03-30T18:13:37.968Z,69.39
2023-03-30T18:14:37.706Z,69.42
2023-03-30T18:15:38.476Z,69.48
2023-03-30T18:16:38.147Z,69.57
2023-03-30T18:17:52.652Z,69.44
2023-03-30T18:18:38.530Z,69.45
2023-03-30T18:19:37.864Z,69.51
2023-03-30T18:20:38.534Z,69.74
2023-03-30T18:21:38.065Z,69.76
2023-03-30T18:22:37.924Z,69.85
2023-03-30T18:23:38.406Z,69.95
2023-03-30T18:24:37.393Z,69.88
2023-03-30T18:25:47.070Z,69.88
2023-03-30T18:26:37.739Z,70.09
2023-03-30T18:27:37.871Z,70.11
2023-03-30T18:28:38.154Z,70.27
2023-03-30T18:29:37.380Z,70.53
2023-03-30T18:30:38.269Z,70.37
2023-03-30T18:31:37.696Z,70.39
2023-03-30T18:32:48.880Z,70.52
2023-03-30T18:33:39.479Z,70.62
2023-03-30T18:34:38.368Z,70.65
2023-03-30T18:35:57.302Z,70.72
2023-03-30T18:36:38.046Z,70.73
2023-03-30T18:37:37.617Z,70.83
2023-03-30T18:38:37.707Z,70.97
2023-03-30T18:39:37.970Z,70.95
2023-03-30T18:40:38.128Z,71.08
2023-03-30T18:41:38.096Z,71.11
2023-03-30T18:42:37.883Z,71.15
2023-03-30T18:43:38.327Z,71.31
2023-03-30T18:44:38.427Z,71.44
2023-03-30T18:45:38.256Z,71.47
2023-03-30T18:46:37.897Z,71.56
2023-03-30T18:47:38.159Z,71.57
2023-03-30T18:48:37.792Z,71.68
2023-03-30T18:49:37.849Z,71.68
2023-03-30T18:50:38.099Z,71.63
2023-03-30T18:51:37.157Z,71.60
2023-03-30T18:52:37.683Z,71.69
2023-03-30T18:53:37.709Z,71.74
2023-03-30T18:54:37.942Z,71.98
2023-03-30T18:55:38.609Z,72.05
2023-03-30T18:56:39.900Z,72.04
2023-03-30T18:57:40.151Z,72.03
2023-03-30T18:58:38.502Z,72.26
2023-03-30T18:59:41.010Z,72.40
2023-03-30T19:00:40.682Z,72.36
2023-03-30T19:01:39.753Z,72.27
2023-03-30T19:02:38.352Z,72.34
2023-03-30T19:03:38.612Z,72.33
2023-03-30T19:04:39.241Z,72.48
2023-03-30T19:06:38.329Z,72.55
2023-03-30T19:07:39.280Z,72.70
2023-03-30T19:08:37.809Z,72.75
2023-03-30T19:10:13.842Z,72.69
2023-03-30T19:10:38.221Z,72.73
2023-03-30T19:11:37.854Z,72.72
2023-03-30T19:12:38.121Z,72.63
2023-03-30T19:13:38.114Z,72.60
2023-03-30T19:14:37.815Z,72.62
2023-03-30T19:15:38.386Z,72.73
2023-03-30T19:16:38.027Z,72.64
2023-03-30T19:17:38.182Z,72.61
2023-03-30T19:18:38.221Z,72.76
2023-03-30T19:19:38.289Z,72.90
2023-03-30T19:20:37.466Z,72.97
2023-03-30T19:21:38.064Z,72.92